Seiryu Maru — JM5893 — position and weather

sailwx.info

Track history (hours):
 
Tides and Currents Weather Stations Pressure Air Temp Water Temp Dewpoint Dewpoint Depression Visibility Wind Speed Wind Dir Waves Ship Positions

Seiryu Maru

Last reported at 2017-Oct-12 10:01 UTC. Time now 2017-Oct-19 22:07 UTC.
Position N 34°55' E 139°46'.

Length 69 m; draft 3.8 m.

Type: Cargo ship. MMSI: 431401059.

Date/timePositionNaut miles runAvg speedWind from/ knotsBaromVisibWave heightAir tempDewpointWater temp
2017-Oct-12 10:01N 34°55' E 139°46'110.8
2017-Oct-12 09:57N 34°55' E 139°45'4 9.7
2017-Oct-12 09:29N 34°60' E 139°44'5 9.8
2017-Oct-12 09:00N 35°04' E 139°45'510.0
2017-Oct-12 08:30N 35°09' E 139°46'510.3
2017-Oct-12 08:00N 35°14' E 139°46'510.2
2017-Oct-12 07:30N 35°19' E 139°44'4 8.6
2017-Oct-12 07:00N 35°23' E 139°44'0 0.4
2017-Oct-12 06:29N 35°23' E 139°45'0 0.0
2017-Oct-12 05:59N 35°23' E 139°45'0 0.0
2017-Oct-12 05:29N 35°23' E 139°45'0 0.0
2017-Oct-12 04:59N 35°23' E 139°45'0 0.0
2017-Oct-12 04:29N 35°23' E 139°45'0 0.0
2017-Oct-12 03:59N 35°23' E 139°45'0 0.0
2017-Oct-12 03:29N 35°23' E 139°45'0 0.0
2017-Oct-12 02:59N 35°23' E 139°45'0 0.0
2017-Oct-12 02:29N 35°23' E 139°45'0 0.0
2017-Oct-12 01:59N 35°23' E 139°45'0 0.1
2017-Oct-12 01:29N 35°23' E 139°45'0 0.0
2017-Oct-11 23:47N 35°23' E 139°45'1 0.0
2017-Oct-10 21:43N 35°24' E 139°45'0 0.0
2017-Oct-10 21:19N 35°24' E 139°45'0 0.0
2017-Oct-10 20:55N 35°24' E 139°45'0 0.0
2017-Oct-10 20:19N 35°24' E 139°45'3 7.7
2017-Oct-10 19:56N 35°21' E 139°44'511.3
2017-Oct-10 19:30N 35°17' E 139°46'611.8
2017-Oct-10 19:00N 35°11' E 139°46'611.3
2017-Oct-10 18:30N 35°06' E 139°43'611.8
2017-Oct-10 18:00N 35°02' E 139°37'612.4
2017-Oct-10 17:30N 34°58' E 139°31'  
Track history (hours):
 
Tides and Currents Weather Stations Pressure Air Temp Water Temp Dewpoint Dewpoint Depression Visibility Wind Speed Wind Dir Waves Ship Positions

Seiryu Maru

Last reported at 2017-Oct-12 10:01 UTC. Time now 2017-Oct-19 22:07 UTC.
Position N 34°55' E 139°46'.

Length 69 m; draft 3.8 m.

Type: Cargo ship. MMSI: 431401059.

Date/timePositionNaut miles runAvg speedWind from/ knotsBaromVisibWave heightAir tempDewpointWater temp
2017-Oct-12 10:01N 34°55' E 139°46'110.8
2017-Oct-12 09:57N 34°55' E 139°45'4 9.7
2017-Oct-12 09:29N 34°60' E 139°44'5 9.8
2017-Oct-12 09:00N 35°04' E 139°45'510.0
2017-Oct-12 08:30N 35°09' E 139°46'510.3
2017-Oct-12 08:00N 35°14' E 139°46'510.2
2017-Oct-12 07:30N 35°19' E 139°44'4 8.6
2017-Oct-12 07:00N 35°23' E 139°44'0 0.4
2017-Oct-12 06:29N 35°23' E 139°45'0 0.0
2017-Oct-12 05:59N 35°23' E 139°45'0 0.0
2017-Oct-12 05:29N 35°23' E 139°45'0 0.0
2017-Oct-12 04:59N 35°23' E 139°45'0 0.0
2017-Oct-12 04:29N 35°23' E 139°45'0 0.0
2017-Oct-12 03:59N 35°23' E 139°45'0 0.0
2017-Oct-12 03:29N 35°23' E 139°45'0 0.0
2017-Oct-12 02:59N 35°23' E 139°45'0 0.0
2017-Oct-12 02:29N 35°23' E 139°45'0 0.0
2017-Oct-12 01:59N 35°23' E 139°45'0 0.1
2017-Oct-12 01:29N 35°23' E 139°45'0 0.0
2017-Oct-11 23:47N 35°23' E 139°45'1 0.0
2017-Oct-10 21:43N 35°24' E 139°45'0 0.0
2017-Oct-10 21:19N 35°24' E 139°45'0 0.0
2017-Oct-10 20:55N 35°24' E 139°45'0 0.0
2017-Oct-10 20:19N 35°24' E 139°45'3 7.7
2017-Oct-10 19:56N 35°21' E 139°44'511.3
2017-Oct-10 19:30N 35°17' E 139°46'611.8
2017-Oct-10 19:00N 35°11' E 139°46'611.3
2017-Oct-10 18:30N 35°06' E 139°43'611.8
2017-Oct-10 18:00N 35°02' E 139°37'612.4
2017-Oct-10 17:30N 34°58' E 139°31'  

Dump ship's entire track history